DLH3AK LIEO-EDDM
Flight info
| Callsign | DLH3AK |
|---|---|
| Flight time | 1h 16m |
| Altitude | 38000 |
| Route | BATOX DCT DEDOM DCT ELB DCT BETMU DCT ADOSA DCT GUNGO DCT SOTOV/N0368F240 T101 BETOS BETOS1A |
| Aircraft | A320/M-SDE3FGHIRWY/LB1 |
Departure
| Time | 2026-05-04 18:05 |
|---|---|
| Airport | Olbia Costa Smeralda Airport (LIEO) |
Arrival
| Time | 2026-05-04 19:21 |
|---|---|
| Airport | Munich Airport (EDDM) |
| Time | Latitude | Longitude | Altitude | Speed | Heading |
|---|---|---|---|---|---|
| 2026-05-04 17:40 | 40.90179 | 9.51529 | 34 ft | 0 kts | 325° |
| 2026-05-04 17:56 | 40.90172 | 9.51536 | 33 ft | 3 kts | 324° |
| 2026-05-04 17:56 | 40.90155 | 9.51551 | 30 ft | 3 kts | 324° |
| 2026-05-04 17:56 | 40.90141 | 9.51565 | 33 ft | 3 kts | 315° |
| 2026-05-04 17:57 | 40.90132 | 9.51582 | 30 ft | 3 kts | 262° |
| 2026-05-04 17:57 | 40.90139 | 9.51604 | 34 ft | 3 kts | 233° |
| 2026-05-04 17:57 | 40.90148 | 9.51619 | 32 ft | 1 kts | 235° |
| 2026-05-04 17:57 | 40.90148 | 9.51620 | 32 ft | 0 kts | 235° |
| 2026-05-04 18:01 | 40.90147 | 9.51618 | 34 ft | 2 kts | 235° |
| 2026-05-04 18:01 | 40.90130 | 9.51587 | 34 ft | 7 kts | 234° |
| 2026-05-04 18:01 | 40.90094 | 9.51520 | 34 ft | 10 kts | 236° |
| 2026-05-04 18:02 | 40.90012 | 9.51513 | 34 ft | 6 kts | 155° |
| 2026-05-04 18:02 | 40.89950 | 9.51504 | 34 ft | 13 kts | 202° |
| 2026-05-04 18:02 | 40.89874 | 9.51389 | 34 ft | 19 kts | 235° |
| 2026-05-04 18:02 | 40.89793 | 9.51231 | 34 ft | 22 kts | 236° |
| 2026-05-04 18:03 | 40.89700 | 9.51052 | 34 ft | 25 kts | 235° |
| 2026-05-04 18:03 | 40.89596 | 9.50853 | 34 ft | 24 kts | 235° |
| 2026-05-04 18:03 | 40.89505 | 9.50678 | 34 ft | 20 kts | 235° |
| 2026-05-04 18:03 | 40.89422 | 9.50529 | 34 ft | 19 kts | 233° |
| 2026-05-04 18:04 | 40.89326 | 9.50439 | 34 ft | 17 kts | 176° |
| 2026-05-04 18:04 | 40.89269 | 9.50566 | 35 ft | 18 kts | 95° |
| 2026-05-04 18:04 | 40.89434 | 9.50935 | 33 ft | 47 kts | 56° |
| 2026-05-04 18:05 | 40.89752 | 9.51543 | 35 ft | 112 kts | 55° |
| 2026-05-04 18:05 | 40.90288 | 9.52581 | 67 ft | 157 kts | 57° |
| 2026-05-04 18:05 | 40.90878 | 9.53752 | 696 ft | 152 kts | 56° |
| 2026-05-04 18:05 | 40.91484 | 9.54913 | 1299 ft | 155 kts | 56° |
| 2026-05-04 18:06 | 40.92894 | 9.57561 | 1939 ft | 199 kts | 56° |
| 2026-05-04 18:06 | 40.93738 | 9.59137 | 2236 ft | 222 kts | 55° |
| 2026-05-04 18:06 | 40.94671 | 9.60880 | 2588 ft | 244 kts | 55° |
| 2026-05-04 18:07 | 40.95670 | 9.62747 | 3280 ft | 252 kts | 56° |
| 2026-05-04 18:07 | 40.96697 | 9.64669 | 4057 ft | 259 kts | 56° |
| 2026-05-04 18:07 | 40.97747 | 9.66633 | 4913 ft | 263 kts | 56° |
| 2026-05-04 18:07 | 40.98809 | 9.68630 | 5734 ft | 270 kts | 57° |
| 2026-05-04 18:08 | 40.99889 | 9.70784 | 6230 ft | 289 kts | 58° |
| 2026-05-04 18:08 | 41.00983 | 9.73060 | 6985 ft | 296 kts | 58° |
| 2026-05-04 18:08 | 41.02084 | 9.75388 | 7810 ft | 300 kts | 59° |
| 2026-05-04 18:08 | 41.03196 | 9.77746 | 8668 ft | 303 kts | 58° |
| 2026-05-04 18:09 | 41.05475 | 9.82537 | 10306 ft | 313 kts | 58° |
| 2026-05-04 18:09 | 41.07973 | 9.87751 | 11016 ft | 351 kts | 58° |
| 2026-05-04 18:10 | 41.09298 | 9.90517 | 11657 ft | 359 kts | 58° |
| 2026-05-04 18:10 | 41.10642 | 9.93321 | 12417 ft | 362 kts | 57° |
| 2026-05-04 18:10 | 41.12000 | 9.96158 | 13156 ft | 367 kts | 57° |
| 2026-05-04 18:10 | 41.13374 | 9.99035 | 13873 ft | 371 kts | 57° |
| 2026-05-04 18:11 | 41.14759 | 10.01938 | 14522 ft | 375 kts | 57° |
| 2026-05-04 18:11 | 41.16162 | 10.04887 | 15161 ft | 379 kts | 57° |
| 2026-05-04 18:11 | 41.17572 | 10.07849 | 15806 ft | 382 kts | 57° |
| 2026-05-04 18:11 | 41.19033 | 10.10812 | 16449 ft | 385 kts | 52° |
| 2026-05-04 18:12 | 41.20861 | 10.13423 | 17087 ft | 387 kts | 39° |
| 2026-05-04 18:12 | 41.23063 | 10.15481 | 17719 ft | 388 kts | 26° |
| 2026-05-04 18:12 | 41.25542 | 10.16893 | 18330 ft | 388 kts | 14° |
| 2026-05-04 18:12 | 41.28169 | 10.17733 | 18877 ft | 390 kts | 9° |
| 2026-05-04 18:13 | 41.30830 | 10.18524 | 19440 ft | 392 kts | 9° |
| 2026-05-04 18:13 | 41.33501 | 10.19323 | 20008 ft | 395 kts | 9° |
| 2026-05-04 18:13 | 41.38908 | 10.20965 | 21091 ft | 401 kts | 9° |
| 2026-05-04 18:14 | 41.41634 | 10.21798 | 21647 ft | 404 kts | 9° |
| 2026-05-04 18:14 | 41.44354 | 10.22632 | 22183 ft | 407 kts | 9° |
| 2026-05-04 18:14 | 41.47165 | 10.23492 | 22728 ft | 410 kts | 9° |
| 2026-05-04 18:15 | 41.52740 | 10.25188 | 23754 ft | 417 kts | 9° |
| 2026-05-04 18:15 | 41.58445 | 10.26927 | 24571 ft | 424 kts | 9° |
| 2026-05-04 18:15 | 41.61327 | 10.27809 | 25005 ft | 426 kts | 8° |
| 2026-05-04 18:16 | 41.64225 | 10.28694 | 25412 ft | 428 kts | 8° |
| 2026-05-04 18:16 | 41.67144 | 10.29585 | 25823 ft | 430 kts | 8° |
| 2026-05-04 18:16 | 41.70071 | 10.30481 | 26223 ft | 433 kts | 8° |
| 2026-05-04 18:17 | 41.75967 | 10.32295 | 27026 ft | 436 kts | 8° |
| 2026-05-04 18:17 | 41.78933 | 10.33207 | 27416 ft | 438 kts | 7° |
| 2026-05-04 18:17 | 41.84904 | 10.35040 | 28168 ft | 442 kts | 7° |
| 2026-05-04 18:18 | 41.87916 | 10.35964 | 28538 ft | 444 kts | 7° |
| 2026-05-04 18:18 | 41.90936 | 10.36893 | 28893 ft | 446 kts | 6° |
| 2026-05-04 18:18 | 41.93936 | 10.37821 | 29252 ft | 448 kts | 7° |
| 2026-05-04 18:18 | 41.96987 | 10.38766 | 29542 ft | 452 kts | 7° |
| 2026-05-04 18:19 | 42.03143 | 10.40684 | 30160 ft | 456 kts | 6° |
| 2026-05-04 18:19 | 42.06245 | 10.41645 | 30428 ft | 458 kts | 6° |
| 2026-05-04 18:19 | 42.09363 | 10.42598 | 30677 ft | 459 kts | 4° |
| 2026-05-04 18:20 | 42.12511 | 10.43147 | 30924 ft | 453 kts | 356° |
| 2026-05-04 18:20 | 42.15636 | 10.43110 | 31163 ft | 449 kts | 350° |
| 2026-05-04 18:20 | 42.18768 | 10.42913 | 31392 ft | 451 kts | 350° |
| 2026-05-04 18:20 | 42.21910 | 10.42714 | 31665 ft | 452 kts | 350° |
| 2026-05-04 18:21 | 42.25047 | 10.42519 | 32022 ft | 451 kts | 350° |
| 2026-05-04 18:21 | 42.28181 | 10.42330 | 32372 ft | 449 kts | 350° |
| 2026-05-04 18:21 | 42.31300 | 10.42143 | 32739 ft | 448 kts | 350° |
| 2026-05-04 18:21 | 42.34415 | 10.41955 | 33096 ft | 446 kts | 350° |
| 2026-05-04 18:22 | 42.37514 | 10.41767 | 33454 ft | 445 kts | 350° |
| 2026-05-04 18:22 | 42.40604 | 10.41579 | 33818 ft | 444 kts | 349° |
| 2026-05-04 18:22 | 42.43683 | 10.41388 | 34163 ft | 442 kts | 349° |
| 2026-05-04 18:22 | 42.46748 | 10.41197 | 34465 ft | 441 kts | 349° |
| 2026-05-04 18:23 | 42.49812 | 10.41009 | 34752 ft | 440 kts | 349° |
| 2026-05-04 18:23 | 42.52869 | 10.40821 | 35025 ft | 439 kts | 350° |
| 2026-05-04 18:23 | 42.55929 | 10.40634 | 35303 ft | 439 kts | 350° |
| 2026-05-04 18:23 | 42.58979 | 10.40449 | 35550 ft | 438 kts | 350° |
| 2026-05-04 18:24 | 42.62024 | 10.40263 | 35796 ft | 438 kts | 350° |
| 2026-05-04 18:24 | 42.65059 | 10.40077 | 36038 ft | 437 kts | 350° |
| 2026-05-04 18:24 | 42.68097 | 10.39890 | 36275 ft | 437 kts | 350° |
| 2026-05-04 18:24 | 42.71132 | 10.39708 | 36505 ft | 436 kts | 351° |
| 2026-05-04 18:25 | 42.74195 | 10.39841 | 36732 ft | 444 kts | 360° |
| 2026-05-04 18:25 | 42.77262 | 10.40459 | 36967 ft | 446 kts | 2° |
| 2026-05-04 18:25 | 42.80322 | 10.41111 | 37193 ft | 445 kts | 2° |
| 2026-05-04 18:25 | 42.83379 | 10.41764 | 37417 ft | 444 kts | 2° |
| 2026-05-04 18:26 | 42.86429 | 10.42417 | 37652 ft | 443 kts | 2° |
| 2026-05-04 18:26 | 42.89473 | 10.43070 | 37872 ft | 442 kts | 2° |
| 2026-05-04 18:26 | 42.92510 | 10.43725 | 38056 ft | 442 kts | 2° |
| 2026-05-04 18:26 | 42.95545 | 10.44379 | 38107 ft | 441 kts | 2° |
| 2026-05-04 18:27 | 43.01599 | 10.45673 | 38098 ft | 440 kts | 2° |
| 2026-05-04 18:27 | 43.07601 | 10.46956 | 38103 ft | 439 kts | 2° |
| 2026-05-04 18:28 | 43.13643 | 10.48253 | 38100 ft | 439 kts | 2° |
| 2026-05-04 18:28 | 43.19691 | 10.49555 | 38102 ft | 440 kts | 2° |
| 2026-05-04 18:29 | 43.25753 | 10.50860 | 38098 ft | 440 kts | 2° |
| 2026-05-04 18:29 | 43.31811 | 10.52179 | 38102 ft | 441 kts | 2° |
| 2026-05-04 18:30 | 43.40899 | 10.54158 | 38111 ft | 441 kts | 2° |
| 2026-05-04 18:31 | 43.46965 | 10.55472 | 38107 ft | 441 kts | 2° |
| 2026-05-04 18:31 | 43.53036 | 10.56791 | 38109 ft | 441 kts | 2° |
| 2026-05-04 18:32 | 43.59103 | 10.58116 | 38121 ft | 441 kts | 2° |
| 2026-05-04 18:32 | 43.65156 | 10.59446 | 38122 ft | 440 kts | 2° |
| 2026-05-04 18:33 | 43.71167 | 10.60762 | 38123 ft | 440 kts | 2° |
| 2026-05-04 18:33 | 43.77216 | 10.62090 | 38135 ft | 440 kts | 2° |
| 2026-05-04 18:34 | 43.83263 | 10.63423 | 38136 ft | 440 kts | 2° |
| 2026-05-04 18:34 | 43.88337 | 10.64550 | 38139 ft | 441 kts | 2° |
| 2026-05-04 18:35 | 43.94354 | 10.65877 | 38173 ft | 441 kts | 2° |
| 2026-05-04 18:35 | 44.00417 | 10.67216 | 38192 ft | 441 kts | 2° |
| 2026-05-04 18:36 | 44.06481 | 10.68567 | 38216 ft | 442 kts | 2° |
| 2026-05-04 18:36 | 44.12547 | 10.69922 | 38230 ft | 442 kts | 2° |
| 2026-05-04 18:37 | 44.18630 | 10.71277 | 38217 ft | 441 kts | 2° |
| 2026-05-04 18:37 | 44.24708 | 10.72629 | 38206 ft | 443 kts | 2° |
| 2026-05-04 18:38 | 44.30799 | 10.73988 | 38201 ft | 443 kts | 2° |
| 2026-05-04 18:38 | 44.36892 | 10.75358 | 38191 ft | 443 kts | 2° |
| 2026-05-04 18:39 | 44.42981 | 10.76734 | 38190 ft | 444 kts | 2° |
| 2026-05-04 18:39 | 44.49082 | 10.78115 | 38192 ft | 444 kts | 3° |
| 2026-05-04 18:40 | 44.55143 | 10.79474 | 38178 ft | 444 kts | 3° |
| 2026-05-04 18:40 | 44.61247 | 10.80853 | 38157 ft | 445 kts | 3° |
| 2026-05-04 18:41 | 44.67366 | 10.82239 | 38143 ft | 445 kts | 3° |
| 2026-05-04 18:41 | 44.73483 | 10.83558 | 38140 ft | 444 kts | 3° |
| 2026-05-04 18:42 | 44.79600 | 10.84796 | 38127 ft | 444 kts | 3° |
| 2026-05-04 18:42 | 44.85721 | 10.86042 | 38126 ft | 444 kts | 3° |
| 2026-05-04 18:43 | 44.91840 | 10.87320 | 38126 ft | 444 kts | 4° |
| 2026-05-04 18:43 | 44.97957 | 10.88596 | 38116 ft | 444 kts | 4° |
| 2026-05-04 18:44 | 45.04067 | 10.89872 | 38076 ft | 444 kts | 4° |
| 2026-05-04 18:44 | 45.10179 | 10.91148 | 38081 ft | 444 kts | 4° |
| 2026-05-04 18:45 | 45.16245 | 10.92419 | 38068 ft | 443 kts | 4° |
| 2026-05-04 18:45 | 45.22350 | 10.93701 | 38064 ft | 443 kts | 4° |
| 2026-05-04 18:46 | 45.28455 | 10.94996 | 38078 ft | 443 kts | 4° |
| 2026-05-04 18:46 | 45.34560 | 10.96288 | 38070 ft | 443 kts | 4° |
| 2026-05-04 18:47 | 45.40655 | 10.97581 | 38067 ft | 443 kts | 4° |
| 2026-05-04 18:47 | 45.46756 | 10.98869 | 38070 ft | 443 kts | 5° |
| 2026-05-04 18:48 | 45.52868 | 11.00173 | 38076 ft | 443 kts | 5° |
| 2026-05-04 18:48 | 45.58932 | 11.01468 | 38080 ft | 443 kts | 5° |
| 2026-05-04 18:49 | 45.65026 | 11.02716 | 38102 ft | 440 kts | 1° |
| 2026-05-04 18:49 | 45.71138 | 11.03035 | 38125 ft | 439 kts | 358° |
| 2026-05-04 18:50 | 45.77254 | 11.03279 | 38135 ft | 440 kts | 358° |
| 2026-05-04 18:50 | 45.83373 | 11.03551 | 38148 ft | 440 kts | 358° |
| 2026-05-04 18:51 | 45.89497 | 11.03863 | 38168 ft | 440 kts | 358° |
| 2026-05-04 18:51 | 45.95620 | 11.04177 | 38182 ft | 440 kts | 358° |
| 2026-05-04 18:52 | 46.01752 | 11.04479 | 38182 ft | 440 kts | 358° |
| 2026-05-04 18:52 | 46.07869 | 11.04781 | 38198 ft | 440 kts | 358° |
| 2026-05-04 18:53 | 46.13991 | 11.05082 | 38196 ft | 440 kts | 358° |
| 2026-05-04 18:53 | 46.20112 | 11.05381 | 38201 ft | 440 kts | 359° |
| 2026-05-04 18:54 | 46.26233 | 11.05695 | 38201 ft | 440 kts | 359° |
| 2026-05-04 18:54 | 46.32347 | 11.06005 | 38201 ft | 440 kts | 358° |
| 2026-05-04 18:55 | 46.38466 | 11.06311 | 38201 ft | 440 kts | 358° |
| 2026-05-04 18:55 | 46.47566 | 11.08044 | 38156 ft | 444 kts | 7° |
| 2026-05-04 18:56 | 46.53640 | 11.09734 | 38132 ft | 444 kts | 7° |
| 2026-05-04 18:56 | 46.59723 | 11.11421 | 38134 ft | 445 kts | 7° |
| 2026-05-04 18:57 | 46.65816 | 11.13103 | 37925 ft | 451 kts | 8° |
| 2026-05-04 18:57 | 46.68933 | 11.13959 | 37388 ft | 457 kts | 8° |
| 2026-05-04 18:57 | 46.72055 | 11.14819 | 36881 ft | 456 kts | 8° |
| 2026-05-04 18:58 | 46.75156 | 11.15679 | 36375 ft | 453 kts | 8° |
| 2026-05-04 18:58 | 46.78244 | 11.16541 | 35877 ft | 450 kts | 8° |
| 2026-05-04 18:58 | 46.81311 | 11.17400 | 35400 ft | 447 kts | 8° |
| 2026-05-04 18:58 | 46.84364 | 11.18258 | 34928 ft | 445 kts | 8° |
| 2026-05-04 18:59 | 46.87390 | 11.19109 | 34467 ft | 442 kts | 9° |
| 2026-05-04 18:59 | 46.90368 | 11.20224 | 33997 ft | 441 kts | 21° |
| 2026-05-04 18:59 | 46.93168 | 11.22049 | 33446 ft | 439 kts | 24° |
| 2026-05-04 18:59 | 46.95920 | 11.23956 | 32909 ft | 437 kts | 24° |
| 2026-05-04 19:00 | 46.98660 | 11.25863 | 32377 ft | 434 kts | 24° |
| 2026-05-04 19:00 | 47.01380 | 11.27756 | 31836 ft | 432 kts | 24° |
| 2026-05-04 19:00 | 47.04087 | 11.29637 | 31332 ft | 429 kts | 24° |
| 2026-05-04 19:00 | 47.06779 | 11.31503 | 30832 ft | 426 kts | 24° |
| 2026-05-04 19:01 | 47.09451 | 11.33357 | 30317 ft | 423 kts | 24° |
| 2026-05-04 19:01 | 47.12108 | 11.35198 | 29757 ft | 421 kts | 24° |
| 2026-05-04 19:01 | 47.14750 | 11.37031 | 29214 ft | 419 kts | 24° |
| 2026-05-04 19:01 | 47.17466 | 11.38454 | 28683 ft | 413 kts | 9° |
| 2026-05-04 19:02 | 47.20275 | 11.38758 | 28156 ft | 408 kts | 355° |
| 2026-05-04 19:02 | 47.23134 | 11.38550 | 27624 ft | 406 kts | 355° |
| 2026-05-04 19:02 | 47.25914 | 11.38335 | 27110 ft | 404 kts | 355° |
| 2026-05-04 19:02 | 47.28720 | 11.38112 | 26591 ft | 403 kts | 355° |
| 2026-05-04 19:03 | 47.31516 | 11.37890 | 26098 ft | 402 kts | 355° |
| 2026-05-04 19:03 | 47.34300 | 11.37672 | 25598 ft | 401 kts | 355° |
| 2026-05-04 19:03 | 47.37082 | 11.37456 | 25110 ft | 399 kts | 355° |
| 2026-05-04 19:03 | 47.39846 | 11.37241 | 24635 ft | 398 kts | 355° |
| 2026-05-04 19:04 | 47.42615 | 11.37029 | 24158 ft | 396 kts | 355° |
| 2026-05-04 19:04 | 47.45359 | 11.36819 | 23698 ft | 394 kts | 355° |
| 2026-05-04 19:04 | 47.48091 | 11.36611 | 23175 ft | 392 kts | 355° |
| 2026-05-04 19:04 | 47.50807 | 11.36402 | 22640 ft | 390 kts | 355° |
| 2026-05-04 19:05 | 47.53515 | 11.36192 | 22099 ft | 389 kts | 355° |
| 2026-05-04 19:05 | 47.56209 | 11.35981 | 21574 ft | 387 kts | 355° |
| 2026-05-04 19:05 | 47.58897 | 11.35770 | 21066 ft | 385 kts | 355° |
| 2026-05-04 19:05 | 47.61572 | 11.35560 | 20563 ft | 384 kts | 355° |
| 2026-05-04 19:06 | 47.64237 | 11.35354 | 20094 ft | 382 kts | 355° |
| 2026-05-04 19:06 | 47.66856 | 11.35153 | 19917 ft | 371 kts | 355° |
| 2026-05-04 19:06 | 47.69387 | 11.34962 | 19943 ft | 359 kts | 354° |
| 2026-05-04 19:06 | 47.71872 | 11.34773 | 19945 ft | 356 kts | 354° |
| 2026-05-04 19:07 | 47.74355 | 11.34580 | 19584 ft | 358 kts | 354° |
| 2026-05-04 19:07 | 47.76851 | 11.34382 | 19117 ft | 359 kts | 354° |
| 2026-05-04 19:07 | 47.79320 | 11.34185 | 18650 ft | 360 kts | 354° |
| 2026-05-04 19:07 | 47.81831 | 11.34007 | 18173 ft | 361 kts | 358° |
| 2026-05-04 19:08 | 47.84325 | 11.34568 | 17634 ft | 365 kts | 18° |
| 2026-05-04 19:08 | 47.86570 | 11.36318 | 17111 ft | 366 kts | 38° |
| 2026-05-04 19:08 | 47.88314 | 11.39082 | 16598 ft | 366 kts | 54° |
| 2026-05-04 19:08 | 47.89810 | 11.42154 | 16085 ft | 366 kts | 55° |
| 2026-05-04 19:09 | 47.91295 | 11.45234 | 15582 ft | 366 kts | 55° |
| 2026-05-04 19:09 | 47.92788 | 11.48338 | 15091 ft | 367 kts | 55° |
| 2026-05-04 19:09 | 47.94259 | 11.51391 | 14601 ft | 367 kts | 55° |
| 2026-05-04 19:09 | 47.95750 | 11.54469 | 14124 ft | 366 kts | 55° |
| 2026-05-04 19:10 | 47.97246 | 11.57549 | 13642 ft | 365 kts | 55° |
| 2026-05-04 19:10 | 47.98734 | 11.60619 | 13108 ft | 363 kts | 55° |
| 2026-05-04 19:10 | 48.00214 | 11.63672 | 12573 ft | 362 kts | 55° |
| 2026-05-04 19:10 | 48.01682 | 11.66709 | 12080 ft | 359 kts | 55° |
| 2026-05-04 19:11 | 48.03138 | 11.69731 | 11561 ft | 357 kts | 55° |
| 2026-05-04 19:11 | 48.04579 | 11.72731 | 11080 ft | 354 kts | 55° |
| 2026-05-04 19:11 | 48.06011 | 11.75713 | 10615 ft | 351 kts | 55° |
| 2026-05-04 19:11 | 48.07406 | 11.78625 | 10163 ft | 348 kts | 55° |
| 2026-05-04 19:12 | 48.08809 | 11.81554 | 9708 ft | 344 kts | 55° |
| 2026-05-04 19:12 | 48.11493 | 11.87133 | 8767 ft | 315 kts | 55° |
| 2026-05-04 19:12 | 48.12743 | 11.89736 | 8314 ft | 302 kts | 55° |
| 2026-05-04 19:13 | 48.13946 | 11.92255 | 7988 ft | 294 kts | 55° |
| 2026-05-04 19:13 | 48.15135 | 11.94753 | 7799 ft | 294 kts | 55° |
| 2026-05-04 19:13 | 48.16320 | 11.97240 | 7475 ft | 291 kts | 55° |
| 2026-05-04 19:13 | 48.17493 | 11.99704 | 7147 ft | 289 kts | 55° |
| 2026-05-04 19:14 | 48.18738 | 12.02064 | 6720 ft | 289 kts | 42° |
| 2026-05-04 19:14 | 48.20409 | 12.03664 | 6274 ft | 289 kts | 26° |
| 2026-05-04 19:14 | 48.22232 | 12.04962 | 5769 ft | 290 kts | 25° |
| 2026-05-04 19:14 | 48.24069 | 12.06221 | 5270 ft | 291 kts | 25° |
| 2026-05-04 19:15 | 48.25914 | 12.07465 | 4776 ft | 289 kts | 25° |
| 2026-05-04 19:15 | 48.27717 | 12.08668 | 4264 ft | 277 kts | 24° |
| 2026-05-04 19:15 | 48.29421 | 12.09809 | 4015 ft | 258 kts | 25° |
| 2026-05-04 19:15 | 48.31005 | 12.10871 | 3988 ft | 241 kts | 24° |
| 2026-05-04 19:16 | 48.32510 | 12.11876 | 4001 ft | 235 kts | 24° |
| 2026-05-04 19:16 | 48.34016 | 12.12831 | 3998 ft | 235 kts | 17° |
| 2026-05-04 19:16 | 48.35596 | 12.12872 | 3987 ft | 223 kts | 343° |
| 2026-05-04 19:16 | 48.36819 | 12.11683 | 3998 ft | 207 kts | 307° |
| 2026-05-04 19:17 | 48.37520 | 12.09888 | 4037 ft | 194 kts | 294° |
| 2026-05-04 19:17 | 48.37676 | 12.07954 | 3996 ft | 188 kts | 250° |
| 2026-05-04 19:17 | 48.36985 | 12.06316 | 3995 ft | 186 kts | 233° |
| 2026-05-04 19:17 | 48.36412 | 12.04569 | 3993 ft | 187 kts | 255° |
| 2026-05-04 19:18 | 48.36175 | 12.02659 | 3997 ft | 187 kts | 261° |
| 2026-05-04 19:18 | 48.36011 | 12.00714 | 3989 ft | 188 kts | 263° |
| 2026-05-04 19:18 | 48.35860 | 11.98754 | 3827 ft | 188 kts | 263° |
| 2026-05-04 19:18 | 48.35713 | 11.96807 | 3613 ft | 187 kts | 263° |
| 2026-05-04 19:19 | 48.35569 | 11.94883 | 3379 ft | 187 kts | 263° |
| 2026-05-04 19:19 | 48.35423 | 11.92941 | 3142 ft | 186 kts | 263° |
| 2026-05-04 19:19 | 48.35279 | 11.91028 | 2897 ft | 180 kts | 264° |
| 2026-05-04 19:19 | 48.35141 | 11.89205 | 2667 ft | 170 kts | 263° |
| 2026-05-04 19:20 | 48.35013 | 11.87515 | 2455 ft | 157 kts | 264° |
| 2026-05-04 19:20 | 48.34893 | 11.85929 | 2251 ft | 149 kts | 265° |
| 2026-05-04 19:20 | 48.34778 | 11.84406 | 2046 ft | 146 kts | 265° |
| 2026-05-04 19:20 | 48.34702 | 11.83408 | 1903 ft | 144 kts | 264° |
| 2026-05-04 19:21 | 48.34588 | 11.81917 | 1722 ft | 142 kts | 264° |
| 2026-05-04 19:21 | 48.34474 | 11.80462 | 1517 ft | 138 kts | 265° |
| 2026-05-04 19:21 | 48.34394 | 11.79196 | 1479 ft | 103 kts | 263° |
| 2026-05-04 19:21 | 48.34320 | 11.78253 | 1476 ft | 35 kts | 263° |
| 2026-05-04 19:22 | 48.34312 | 11.78089 | 1485 ft | 17 kts | 270° |
| 2026-05-04 19:22 | 48.34327 | 11.77961 | 1481 ft | 11 kts | 290° |
| 2026-05-04 19:22 | 48.34353 | 11.77857 | 1475 ft | 10 kts | 292° |